sensor_id;sensor_type;location;lat;lon;timestamp;P1;durP1;ratioP1;P2;durP2;ratioP2
2906;SDS011;1463;51.070;16.998;2023-04-15T00:00:41;24.70;;;12.68;;
2906;SDS011;1463;51.070;16.998;2023-04-15T00:03:09;21.55;;;12.73;;
2906;SDS011;1463;51.070;16.998;2023-04-15T00:05:38;22.70;;;12.55;;
2906;SDS011;1463;51.070;16.998;2023-04-15T00:08:05;22.90;;;12.18;;
2906;SDS011;1463;51.070;16.998;2023-04-15T00:10:33;21.55;;;10.13;;
2906;SDS011;1463;51.070;16.998;2023-04-15T00:13:00;14.98;;;9.15;;
2906;SDS011;1463;51.070;16.998;2023-04-15T00:15:28;9.88;;;7.50;;
2906;SDS011;1463;51.070;16.998;2023-04-15T00:17:55;10.43;;;8.40;;
2906;SDS011;1463;51.070;16.998;2023-04-15T00:20:23;13.68;;;8.60;;
2906;SDS011;1463;51.070;16.998;2023-04-15T00:22:52;11.70;;;8.25;;
2906;SDS011;1463;51.070;16.998;2023-04-15T00:25:19;12.98;;;8.82;;
2906;SDS011;1463;51.070;16.998;2023-04-15T00:27:47;12.52;;;8.30;;
2906;SDS011;1463;51.070;16.998;2023-04-15T00:30:15;13.57;;;7.15;;
2906;SDS011;1463;51.070;16.998;2023-04-15T00:32:43;13.40;;;8.52;;
2906;SDS011;1463;51.070;16.998;2023-04-15T00:35:11;10.25;;;7.28;;
2906;SDS011;1463;51.070;16.998;2023-04-15T00:37:38;11.55;;;7.32;;
2906;SDS011;1463;51.070;16.998;2023-04-15T00:40:08;9.82;;;7.57;;
2906;SDS011;1463;51.070;16.998;2023-04-15T00:42:38;12.35;;;7.47;;
2906;SDS011;1463;51.070;16.998;2023-04-15T00:45:06;13.15;;;7.50;;
2906;SDS011;1463;51.070;16.998;2023-04-15T00:47:35;11.23;;;8.73;;
2906;SDS011;1463;51.070;16.998;2023-04-15T00:50:03;11.32;;;9.02;;
2906;SDS011;1463;51.070;16.998;2023-04-15T00:52:31;12.43;;;7.38;;
2906;SDS011;1463;51.070;16.998;2023-04-15T00:54:59;17.15;;;8.63;;
2906;SDS011;1463;51.070;16.998;2023-04-15T00:57:28;12.63;;;8.32;;
2906;SDS011;1463;51.070;16.998;2023-04-15T00:59:56;11.30;;;7.95;;
2906;SDS011;1463;51.070;16.998;2023-04-15T01:02:23;14.40;;;8.90;;
2906;SDS011;1463;51.070;16.998;2023-04-15T01:04:51;11.68;;;7.32;;
2906;SDS011;1463;51.070;16.998;2023-04-15T01:07:18;13.13;;;8.65;;
2906;SDS011;1463;51.070;16.998;2023-04-15T01:09:46;13.52;;;8.63;;
2906;SDS011;1463;51.070;16.998;2023-04-15T01:12:14;11.32;;;7.72;;
2906;SDS011;1463;51.070;16.998;2023-04-15T01:14:44;10.98;;;7.70;;
2906;SDS011;1463;51.070;16.998;2023-04-15T01:17:11;14.45;;;8.75;;
2906;SDS011;1463;51.070;16.998;2023-04-15T01:19:39;17.35;;;8.55;;
2906;SDS011;1463;51.070;16.998;2023-04-15T01:22:06;13.77;;;8.88;;
2906;SDS011;1463;51.070;16.998;2023-04-15T01:24:34;9.70;;;7.15;;
2906;SDS011;1463;51.070;16.998;2023-04-15T01:27:04;9.18;;;7.20;;
2906;SDS011;1463;51.070;16.998;2023-04-15T01:29:37;14.05;;;8.43;;
2906;SDS011;1463;51.070;16.998;2023-04-15T01:32:05;10.95;;;7.70;;
2906;SDS011;1463;51.070;16.998;2023-04-15T01:34:33;12.18;;;8.95;;
2906;SDS011;1463;51.070;16.998;2023-04-15T01:37:00;9.65;;;7.30;;
2906;SDS011;1463;51.070;16.998;2023-04-15T01:39:27;13.75;;;8.77;;
2906;SDS011;1463;51.070;16.998;2023-04-15T01:41:55;12.32;;;8.45;;
2906;SDS011;1463;51.070;16.998;2023-04-15T01:44:24;10.98;;;7.38;;
2906;SDS011;1463;51.070;16.998;2023-04-15T01:46:51;10.63;;;7.72;;
2906;SDS011;1463;51.070;16.998;2023-04-15T01:49:19;14.00;;;8.40;;
2906;SDS011;1463;51.070;16.998;2023-04-15T01:51:46;11.30;;;7.50;;
2906;SDS011;1463;51.070;16.998;2023-04-15T01:54:14;12.35;;;8.20;;
2906;SDS011;1463;51.070;16.998;2023-04-15T01:56:41;12.48;;;7.25;;
2906;SDS011;1463;51.070;16.998;2023-04-15T01:59:09;9.88;;;7.35;;
2906;SDS011;1463;51.070;16.998;2023-04-15T02:01:37;12.00;;;8.77;;
2906;SDS011;1463;51.070;16.998;2023-04-15T02:04:05;10.45;;;7.53;;
2906;SDS011;1463;51.070;16.998;2023-04-15T02:06:40;14.60;;;8.75;;
2906;SDS011;1463;51.070;16.998;2023-04-15T02:09:08;15.85;;;7.78;;
2906;SDS011;1463;51.070;16.998;2023-04-15T02:11:35;15.07;;;7.88;;
2906;SDS011;1463;51.070;16.998;2023-04-15T02:14:03;10.98;;;6.85;;
2906;SDS011;1463;51.070;16.998;2023-04-15T02:16:31;12.07;;;8.63;;
2906;SDS011;1463;51.070;16.998;2023-04-15T02:19:00;10.88;;;6.50;;
2906;SDS011;1463;51.070;16.998;2023-04-15T02:21:28;11.02;;;7.70;;
2906;SDS011;1463;51.070;16.998;2023-04-15T02:23:55;10.30;;;7.88;;
2906;SDS011;1463;51.070;16.998;2023-04-15T02:26:23;13.55;;;8.50;;
2906;SDS011;1463;51.070;16.998;2023-04-15T02:28:50;12.75;;;9.18;;
2906;SDS011;1463;51.070;16.998;2023-04-15T02:31:18;11.45;;;7.82;;
2906;SDS011;1463;51.070;16.998;2023-04-15T02:33:45;10.82;;;8.90;;
2906;SDS011;1463;51.070;16.998;2023-04-15T02:36:14;11.68;;;8.40;;
2906;SDS011;1463;51.070;16.998;2023-04-15T02:38:42;16.95;;;9.77;;
2906;SDS011;1463;51.070;16.998;2023-04-15T02:41:09;14.23;;;9.23;;
2906;SDS011;1463;51.070;16.998;2023-04-15T02:43:36;14.68;;;10.05;;
2906;SDS011;1463;51.070;16.998;2023-04-15T02:46:04;13.23;;;8.25;;
2906;SDS011;1463;51.070;16.998;2023-04-15T02:48:31;14.38;;;8.80;;
2906;SDS011;1463;51.070;16.998;2023-04-15T02:51:12;14.07;;;9.55;;
2906;SDS011;1463;51.070;16.998;2023-04-15T02:53:43;13.40;;;9.13;;
2906;SDS011;1463;51.070;16.998;2023-04-15T02:56:11;15.43;;;9.13;;
2906;SDS011;1463;51.070;16.998;2023-04-15T02:58:39;15.88;;;9.63;;
2906;SDS011;1463;51.070;16.998;2023-04-15T03:01:07;15.82;;;9.40;;
2906;SDS011;1463;51.070;16.998;2023-04-15T03:03:34;13.18;;;7.80;;
2906;SDS011;1463;51.070;16.998;2023-04-15T03:06:02;13.57;;;8.82;;
2906;SDS011;1463;51.070;16.998;2023-04-15T03:08:31;14.32;;;10.38;;
2906;SDS011;1463;51.070;16.998;2023-04-15T03:10:58;19.35;;;11.57;;
2906;SDS011;1463;51.070;16.998;2023-04-15T03:13:27;13.70;;;9.25;;
2906;SDS011;1463;51.070;16.998;2023-04-15T03:15:54;17.40;;;9.98;;
2906;SDS011;1463;51.070;16.998;2023-04-15T03:18:21;16.40;;;10.27;;
2906;SDS011;1463;51.070;16.998;2023-04-15T03:20:49;17.05;;;9.05;;
2906;SDS011;1463;51.070;16.998;2023-04-15T03:23:16;15.27;;;10.48;;
2906;SDS011;1463;51.070;16.998;2023-04-15T03:25:45;18.63;;;10.75;;
2906;SDS011;1463;51.070;16.998;2023-04-15T03:28:12;13.02;;;9.55;;
2906;SDS011;1463;51.070;16.998;2023-04-15T03:30:40;17.92;;;11.05;;
2906;SDS011;1463;51.070;16.998;2023-04-15T03:33:07;18.45;;;10.27;;
2906;SDS011;1463;51.070;16.998;2023-04-15T03:35:35;14.77;;;10.20;;
2906;SDS011;1463;51.070;16.998;2023-04-15T03:38:02;13.50;;;8.80;;
2906;SDS011;1463;51.070;16.998;2023-04-15T03:40:29;12.50;;;7.05;;
2906;SDS011;1463;51.070;16.998;2023-04-15T03:42:58;11.52;;;6.70;;
2906;SDS011;1463;51.070;16.998;2023-04-15T03:45:26;10.15;;;5.50;;
2906;SDS011;1463;51.070;16.998;2023-04-15T03:47:53;6.57;;;5.10;;
2906;SDS011;1463;51.070;16.998;2023-04-15T03:50:21;5.18;;;4.07;;
2906;SDS011;1463;51.070;16.998;2023-04-15T03:52:48;5.05;;;3.25;;
2906;SDS011;1463;51.070;16.998;2023-04-15T03:55:16;4.38;;;3.15;;
2906;SDS011;1463;51.070;16.998;2023-04-15T03:57:44;3.72;;;2.47;;
2906;SDS011;1463;51.070;16.998;2023-04-15T04:00:13;5.00;;;3.65;;
2906;SDS011;1463;51.070;16.998;2023-04-15T04:02:40;5.85;;;3.25;;
2906;SDS011;1463;51.070;16.998;2023-04-15T04:05:08;4.85;;;2.75;;
2906;SDS011;1463;51.070;16.998;2023-04-15T04:07:35;4.25;;;2.90;;
2906;SDS011;1463;51.070;16.998;2023-04-15T04:10:03;4.57;;;2.53;;
2906;SDS011;1463;51.070;16.998;2023-04-15T04:12:31;2.58;;;2.00;;
2906;SDS011;1463;51.070;16.998;2023-04-15T04:14:58;13.40;;;3.03;;
2906;SDS011;1463;51.070;16.998;2023-04-15T04:17:27;3.10;;;2.20;;
2906;SDS011;1463;51.070;16.998;2023-04-15T04:19:55;3.90;;;2.22;;
2906;SDS011;1463;51.070;16.998;2023-04-15T04:22:22;3.00;;;2.60;;
2906;SDS011;1463;51.070;16.998;2023-04-15T04:24:50;3.38;;;2.00;;
2906;SDS011;1463;51.070;16.998;2023-04-15T04:27:17;6.25;;;2.80;;
2906;SDS011;1463;51.070;16.998;2023-04-15T04:29:45;2.63;;;2.20;;
2906;SDS011;1463;51.070;16.998;2023-04-15T04:32:14;3.05;;;2.33;;
2906;SDS011;1463;51.070;16.998;2023-04-15T04:34:43;2.53;;;1.83;;
2906;SDS011;1463;51.070;16.998;2023-04-15T04:37:10;2.45;;;1.50;;
2906;SDS011;1463;51.070;16.998;2023-04-15T04:39:38;4.43;;;1.83;;
2906;SDS011;1463;51.070;16.998;2023-04-15T04:42:05;3.30;;;2.30;;
2906;SDS011;1463;51.070;16.998;2023-04-15T04:44:32;3.20;;;2.00;;
2906;SDS011;1463;51.070;16.998;2023-04-15T04:47:00;2.13;;;1.50;;
2906;SDS011;1463;51.070;16.998;2023-04-15T04:49:27;2.40;;;1.83;;
2906;SDS011;1463;51.070;16.998;2023-04-15T04:51:56;2.15;;;1.38;;
2906;SDS011;1463;51.070;16.998;2023-04-15T04:54:24;3.20;;;2.17;;
2906;SDS011;1463;51.070;16.998;2023-04-15T04:56:51;2.55;;;1.65;;
2906;SDS011;1463;51.070;16.998;2023-04-15T04:59:19;3.40;;;1.65;;
2906;SDS011;1463;51.070;16.998;2023-04-15T05:01:46;1.90;;;1.50;;
2906;SDS011;1463;51.070;16.998;2023-04-15T05:04:14;2.55;;;1.40;;
2906;SDS011;1463;51.070;16.998;2023-04-15T05:06:41;1.70;;;1.20;;
2906;SDS011;1463;51.070;16.998;2023-04-15T05:09:10;2.55;;;1.73;;
2906;SDS011;1463;51.070;16.998;2023-04-15T05:11:38;2.67;;;1.75;;
2906;SDS011;1463;51.070;16.998;2023-04-15T05:14:05;2.90;;;2.05;;
2906;SDS011;1463;51.070;16.998;2023-04-15T05:16:33;4.18;;;1.65;;
2906;SDS011;1463;51.070;16.998;2023-04-15T05:19:00;3.17;;;1.90;;
2906;SDS011;1463;51.070;16.998;2023-04-15T05:21:28;2.65;;;1.98;;
2906;SDS011;1463;51.070;16.998;2023-04-15T05:23:55;2.80;;;1.50;;
2906;SDS011;1463;51.070;16.998;2023-04-15T05:26:24;2.53;;;1.98;;
2906;SDS011;1463;51.070;16.998;2023-04-15T05:28:52;2.15;;;1.65;;
2906;SDS011;1463;51.070;16.998;2023-04-15T05:31:19;2.95;;;2.08;;
2906;SDS011;1463;51.070;16.998;2023-04-15T05:33:47;3.85;;;2.20;;
2906;SDS011;1463;51.070;16.998;2023-04-15T05:36:14;3.30;;;2.08;;
2906;SDS011;1463;51.070;16.998;2023-04-15T05:38:42;2.50;;;1.67;;
2906;SDS011;1463;51.070;16.998;2023-04-15T05:41:09;3.03;;;1.80;;
2906;SDS011;1463;51.070;16.998;2023-04-15T05:43:41;2.33;;;1.75;;
2906;SDS011;1463;51.070;16.998;2023-04-15T05:46:08;2.40;;;1.80;;
2906;SDS011;1463;51.070;16.998;2023-04-15T05:48:36;2.80;;;1.95;;
2906;SDS011;1463;51.070;16.998;2023-04-15T05:51:03;5.28;;;2.10;;
2906;SDS011;1463;51.070;16.998;2023-04-15T05:53:31;2.80;;;1.60;;
2906;SDS011;1463;51.070;16.998;2023-04-15T05:55:59;2.30;;;1.50;;
2906;SDS011;1463;51.070;16.998;2023-04-15T05:58:26;2.90;;;1.52;;
2906;SDS011;1463;51.070;16.998;2023-04-15T06:00:55;2.25;;;1.77;;
2906;SDS011;1463;51.070;16.998;2023-04-15T06:03:23;2.17;;;1.58;;
2906;SDS011;1463;51.070;16.998;2023-04-15T06:05:50;2.33;;;1.42;;
2906;SDS011;1463;51.070;16.998;2023-04-15T06:08:18;2.42;;;1.60;;
2906;SDS011;1463;51.070;16.998;2023-04-15T06:10:46;2.28;;;1.67;;
2906;SDS011;1463;51.070;16.998;2023-04-15T06:13:14;2.00;;;1.40;;
2906;SDS011;1463;51.070;16.998;2023-04-15T06:15:41;2.25;;;1.55;;
2906;SDS011;1463;51.070;16.998;2023-04-15T06:18:10;2.20;;;1.48;;
2906;SDS011;1463;51.070;16.998;2023-04-15T06:20:38;2.70;;;1.50;;
2906;SDS011;1463;51.070;16.998;2023-04-15T06:23:06;3.45;;;1.52;;
2906;SDS011;1463;51.070;16.998;2023-04-15T06:25:33;1.92;;;1.33;;
2906;SDS011;1463;51.070;16.998;2023-04-15T06:28:00;2.28;;;1.38;;
2906;SDS011;1463;51.070;16.998;2023-04-15T06:30:28;2.15;;;1.60;;
2906;SDS011;1463;51.070;16.998;2023-04-15T06:32:56;2.13;;;1.60;;
2906;SDS011;1463;51.070;16.998;2023-04-15T06:35:25;2.60;;;1.20;;
2906;SDS011;1463;51.070;16.998;2023-04-15T06:37:53;2.20;;;1.63;;
2906;SDS011;1463;51.070;16.998;2023-04-15T06:40:20;2.70;;;1.70;;
2906;SDS011;1463;51.070;16.998;2023-04-15T06:42:48;2.72;;;1.45;;
2906;SDS011;1463;51.070;16.998;2023-04-15T06:45:16;2.30;;;1.35;;
2906;SDS011;1463;51.070;16.998;2023-04-15T06:47:43;2.50;;;1.45;;
2906;SDS011;1463;51.070;16.998;2023-04-15T06:50:11;2.50;;;1.63;;
2906;SDS011;1463;51.070;16.998;2023-04-15T06:52:40;2.55;;;1.65;;
2906;SDS011;1463;51.070;16.998;2023-04-15T06:55:07;1.90;;;1.40;;
2906;SDS011;1463;51.070;16.998;2023-04-15T06:57:35;2.58;;;1.70;;
2906;SDS011;1463;51.070;16.998;2023-04-15T07:00:03;2.33;;;1.70;;
2906;SDS011;1463;51.070;16.998;2023-04-15T07:02:31;2.63;;;1.70;;
2906;SDS011;1463;51.070;16.998;2023-04-15T07:04:59;2.33;;;1.25;;
2906;SDS011;1463;51.070;16.998;2023-04-15T07:07:26;1.88;;;1.30;;
2906;SDS011;1463;51.070;16.998;2023-04-15T07:09:55;2.22;;;1.40;;
2906;SDS011;1463;51.070;16.998;2023-04-15T07:12:23;2.38;;;1.30;;
2906;SDS011;1463;51.070;16.998;2023-04-15T07:14:50;2.65;;;1.40;;
2906;SDS011;1463;51.070;16.998;2023-04-15T07:17:18;2.08;;;1.40;;
2906;SDS011;1463;51.070;16.998;2023-04-15T07:19:45;2.10;;;1.60;;
2906;SDS011;1463;51.070;16.998;2023-04-15T07:22:13;1.73;;;1.02;;
2906;SDS011;1463;51.070;16.998;2023-04-15T07:24:40;1.80;;;1.30;;
2906;SDS011;1463;51.070;16.998;2023-04-15T07:27:09;2.95;;;1.50;;
2906;SDS011;1463;51.070;16.998;2023-04-15T07:29:37;2.03;;;1.30;;
2906;SDS011;1463;51.070;16.998;2023-04-15T07:32:06;2.67;;;1.17;;
2906;SDS011;1463;51.070;16.998;2023-04-15T07:34:34;1.85;;;1.30;;
2906;SDS011;1463;51.070;16.998;2023-04-15T07:37:02;1.85;;;1.27;;
2906;SDS011;1463;51.070;16.998;2023-04-15T07:39:29;2.28;;;2.08;;
2906;SDS011;1463;51.070;16.998;2023-04-15T07:41:57;2.15;;;1.33;;
2906;SDS011;1463;51.070;16.998;2023-04-15T07:44:26;2.78;;;1.40;;
2906;SDS011;1463;51.070;16.998;2023-04-15T07:46:54;2.05;;;1.02;;
2906;SDS011;1463;51.070;16.998;2023-04-15T07:49:22;2.00;;;1.30;;
2906;SDS011;1463;51.070;16.998;2023-04-15T07:51:49;2.13;;;1.35;;
2906;SDS011;1463;51.070;16.998;2023-04-15T07:54:17;2.33;;;1.33;;
2906;SDS011;1463;51.070;16.998;2023-04-15T07:56:45;1.60;;;1.00;;
2906;SDS011;1463;51.070;16.998;2023-04-15T07:59:12;1.88;;;1.40;;
2906;SDS011;1463;51.070;16.998;2023-04-15T08:01:43;2.15;;;1.02;;
2906;SDS011;1463;51.070;16.998;2023-04-15T08:04:11;1.70;;;1.13;;
2906;SDS011;1463;51.070;16.998;2023-04-15T08:06:38;2.55;;;1.00;;
2906;SDS011;1463;51.070;16.998;2023-04-15T08:09:06;1.90;;;1.20;;
2906;SDS011;1463;51.070;16.998;2023-04-15T08:11:33;1.80;;;1.10;;
2906;SDS011;1463;51.070;16.998;2023-04-15T08:14:02;2.00;;;1.27;;
2906;SDS011;1463;51.070;16.998;2023-04-15T08:16:30;1.85;;;1.20;;
2906;SDS011;1463;51.070;16.998;2023-04-15T08:18:59;2.58;;;1.40;;
2906;SDS011;1463;51.070;16.998;2023-04-15T08:21:26;2.40;;;1.17;;
2906;SDS011;1463;51.070;16.998;2023-04-15T08:23:55;1.95;;;1.05;;
2906;SDS011;1463;51.070;16.998;2023-04-15T08:26:22;2.00;;;1.00;;
2906;SDS011;1463;51.070;16.998;2023-04-15T08:28:50;2.45;;;1.00;;
2906;SDS011;1463;51.070;16.998;2023-04-15T08:31:18;1.85;;;1.05;;
2906;SDS011;1463;51.070;16.998;2023-04-15T08:33:46;2.40;;;1.45;;
2906;SDS011;1463;51.070;16.998;2023-04-15T08:36:15;2.13;;;0.95;;
2906;SDS011;1463;51.070;16.998;2023-04-15T08:38:43;1.80;;;0.80;;
2906;SDS011;1463;51.070;16.998;2023-04-15T08:41:14;1.80;;;0.90;;
2906;SDS011;1463;51.070;16.998;2023-04-15T08:43:48;1.60;;;0.70;;
2906;SDS011;1463;51.070;16.998;2023-04-15T08:46:20;1.95;;;1.00;;
2906;SDS011;1463;51.070;16.998;2023-04-15T08:48:48;2.70;;;0.95;;
2906;SDS011;1463;51.070;16.998;2023-04-15T08:51:17;3.50;;;1.20;;
2906;SDS011;1463;51.070;16.998;2023-04-15T08:53:46;2.58;;;1.48;;
2906;SDS011;1463;51.070;16.998;2023-04-15T08:56:14;2.00;;;1.10;;
2906;SDS011;1463;51.070;16.998;2023-04-15T08:58:42;6.95;;;0.98;;
2906;SDS011;1463;51.070;16.998;2023-04-15T09:01:11;1.60;;;0.80;;
2906;SDS011;1463;51.070;16.998;2023-04-15T09:03:38;2.30;;;1.00;;
2906;SDS011;1463;51.070;16.998;2023-04-15T09:06:07;1.83;;;0.95;;
2906;SDS011;1463;51.070;16.998;2023-04-15T09:08:36;2.28;;;1.05;;
2906;SDS011;1463;51.070;16.998;2023-04-15T09:11:04;2.50;;;0.90;;
2906;SDS011;1463;51.070;16.998;2023-04-15T09:13:32;2.13;;;1.02;;
2906;SDS011;1463;51.070;16.998;2023-04-15T09:16:00;1.70;;;0.90;;
2906;SDS011;1463;51.070;16.998;2023-04-15T09:18:29;1.70;;;1.00;;
2906;SDS011;1463;51.070;16.998;2023-04-15T09:21:03;1.90;;;0.93;;
2906;SDS011;1463;51.070;16.998;2023-04-15T09:23:33;1.98;;;0.98;;
2906;SDS011;1463;51.070;16.998;2023-04-15T09:26:02;2.28;;;0.95;;
2906;SDS011;1463;51.070;16.998;2023-04-15T09:28:31;4.00;;;0.90;;
2906;SDS011;1463;51.070;16.998;2023-04-15T09:31:06;2.03;;;0.90;;
2906;SDS011;1463;51.070;16.998;2023-04-15T09:33:34;1.80;;;0.80;;
2906;SDS011;1463;51.070;16.998;2023-04-15T09:36:19;4.70;;;1.90;;
2906;SDS011;1463;51.070;16.998;2023-04-15T09:38:53;2.10;;;1.13;;
2906;SDS011;1463;51.070;16.998;2023-04-15T09:41:23;1.90;;;0.90;;
2906;SDS011;1463;51.070;16.998;2023-04-15T09:43:50;2.03;;;0.82;;
2906;SDS011;1463;51.070;16.998;2023-04-15T09:46:18;1.70;;;0.80;;
2906;SDS011;1463;51.070;16.998;2023-04-15T09:48:46;1.77;;;0.80;;
2906;SDS011;1463;51.070;16.998;2023-04-15T09:51:33;1.80;;;0.90;;
2906;SDS011;1463;51.070;16.998;2023-04-15T09:54:01;3.80;;;1.30;;
2906;SDS011;1463;51.070;16.998;2023-04-15T09:56:33;2.65;;;1.25;;
2906;SDS011;1463;51.070;16.998;2023-04-15T09:59:02;2.03;;;1.00;;
2906;SDS011;1463;51.070;16.998;2023-04-15T10:01:31;1.50;;;0.80;;
2906;SDS011;1463;51.070;16.998;2023-04-15T10:03:58;1.65;;;0.90;;
2906;SDS011;1463;51.070;16.998;2023-04-15T10:06:29;1.90;;;1.23;;
2906;SDS011;1463;51.070;16.998;2023-04-15T10:08:57;1.90;;;0.80;;
2906;SDS011;1463;51.070;16.998;2023-04-15T10:11:25;1.73;;;0.77;;
2906;SDS011;1463;51.070;16.998;2023-04-15T10:13:56;1.48;;;0.60;;
2906;SDS011;1463;51.070;16.998;2023-04-15T10:16:25;1.70;;;0.80;;
2906;SDS011;1463;51.070;16.998;2023-04-15T10:18:54;1.80;;;0.80;;
2906;SDS011;1463;51.070;16.998;2023-04-15T10:21:22;1.50;;;0.70;;
2906;SDS011;1463;51.070;16.998;2023-04-15T10:23:50;1.70;;;0.80;;
2906;SDS011;1463;51.070;16.998;2023-04-15T10:26:18;1.70;;;0.80;;
2906;SDS011;1463;51.070;16.998;2023-04-15T10:28:46;1.70;;;0.80;;
2906;SDS011;1463;51.070;16.998;2023-04-15T10:31:15;1.75;;;0.90;;
2906;SDS011;1463;51.070;16.998;2023-04-15T10:33:44;2.88;;;0.70;;
2906;SDS011;1463;51.070;16.998;2023-04-15T10:36:13;1.70;;;0.80;;
2906;SDS011;1463;51.070;16.998;2023-04-15T10:38:41;3.95;;;1.20;;
2906;SDS011;1463;51.070;16.998;2023-04-15T10:41:13;1.77;;;0.93;;
2906;SDS011;1463;51.070;16.998;2023-04-15T10:43:49;1.50;;;0.70;;
2906;SDS011;1463;51.070;16.998;2023-04-15T10:46:20;3.72;;;1.17;;
2906;SDS011;1463;51.070;16.998;2023-04-15T10:48:50;1.83;;;0.90;;
2906;SDS011;1463;51.070;16.998;2023-04-15T10:51:29;2.67;;;1.00;;
2906;SDS011;1463;51.070;16.998;2023-04-15T10:53:58;2.17;;;1.10;;
2906;SDS011;1463;51.070;16.998;2023-04-15T10:56:27;2.20;;;1.20;;
2906;SDS011;1463;51.070;16.998;2023-04-15T10:58:57;1.80;;;0.90;;
2906;SDS011;1463;51.070;16.998;2023-04-15T11:07:38;2.97;;;1.25;;
2906;SDS011;1463;51.070;16.998;2023-04-15T11:13:17;2.28;;;1.35;;
2906;SDS011;1463;51.070;16.998;2023-04-15T11:15:59;1.90;;;1.00;;
2906;SDS011;1463;51.070;16.998;2023-04-15T11:18:32;2.22;;;1.10;;
2906;SDS011;1463;51.070;16.998;2023-04-15T11:21:04;2.38;;;1.00;;
2906;SDS011;1463;51.070;16.998;2023-04-15T11:23:34;3.15;;;1.20;;
2906;SDS011;1463;51.070;16.998;2023-04-15T11:26:04;2.30;;;1.20;;
2906;SDS011;1463;51.070;16.998;2023-04-15T11:28:33;1.70;;;0.88;;
2906;SDS011;1463;51.070;16.998;2023-04-15T11:31:05;1.90;;;0.95;;
2906;SDS011;1463;51.070;16.998;2023-04-15T11:33:36;1.70;;;0.90;;
2906;SDS011;1463;51.070;16.998;2023-04-15T11:36:06;2.15;;;1.05;;
2906;SDS011;1463;51.070;16.998;2023-04-15T11:38:36;1.98;;;0.93;;
2906;SDS011;1463;51.070;16.998;2023-04-15T11:41:03;2.03;;;1.00;;
2906;SDS011;1463;51.070;16.998;2023-04-15T11:43:30;2.70;;;1.58;;
2906;SDS011;1463;51.070;16.998;2023-04-15T11:46:00;1.90;;;1.20;;
2906;SDS011;1463;51.070;16.998;2023-04-15T11:48:29;3.58;;;0.85;;
2906;SDS011;1463;51.070;16.998;2023-04-15T11:50:59;1.95;;;0.98;;
2906;SDS011;1463;51.070;16.998;2023-04-15T11:53:37;1.98;;;0.95;;
2906;SDS011;1463;51.070;16.998;2023-04-15T11:56:07;2.00;;;0.90;;
2906;SDS011;1463;51.070;16.998;2023-04-15T11:58:36;1.92;;;1.00;;
2906;SDS011;1463;51.070;16.998;2023-04-15T12:01:05;1.80;;;0.85;;
2906;SDS011;1463;51.070;16.998;2023-04-15T12:03:36;2.20;;;1.00;;
2906;SDS011;1463;51.070;16.998;2023-04-15T12:06:10;1.65;;;0.75;;
2906;SDS011;1463;51.070;16.998;2023-04-15T12:08:59;1.85;;;0.85;;
2906;SDS011;1463;51.070;16.998;2023-04-15T12:11:30;2.65;;;1.00;;
2906;SDS011;1463;51.070;16.998;2023-04-15T12:14:03;4.32;;;1.08;;
2906;SDS011;1463;51.070;16.998;2023-04-15T12:16:37;2.22;;;1.05;;
2906;SDS011;1463;51.070;16.998;2023-04-15T12:19:06;2.72;;;1.00;;
2906;SDS011;1463;51.070;16.998;2023-04-15T12:21:37;1.90;;;0.90;;
2906;SDS011;1463;51.070;16.998;2023-04-15T12:24:07;2.20;;;1.20;;
2906;SDS011;1463;51.070;16.998;2023-04-15T12:26:36;1.90;;;0.90;;
2906;SDS011;1463;51.070;16.998;2023-04-15T12:29:09;3.45;;;1.02;;
2906;SDS011;1463;51.070;16.998;2023-04-15T12:31:46;2.60;;;1.20;;
2906;SDS011;1463;51.070;16.998;2023-04-15T12:34:17;2.38;;;1.00;;
2906;SDS011;1463;51.070;16.998;2023-04-15T12:36:53;2.42;;;1.30;;
2906;SDS011;1463;51.070;16.998;2023-04-15T12:39:22;2.20;;;0.80;;
2906;SDS011;1463;51.070;16.998;2023-04-15T12:41:50;1.88;;;1.05;;
2906;SDS011;1463;51.070;16.998;2023-04-15T12:44:17;1.90;;;0.80;;
2906;SDS011;1463;51.070;16.998;2023-04-15T12:46:46;1.73;;;0.90;;
2906;SDS011;1463;51.070;16.998;2023-04-15T12:49:13;1.80;;;0.90;;
2906;SDS011;1463;51.070;16.998;2023-04-15T12:51:43;1.60;;;0.68;;
2906;SDS011;1463;51.070;16.998;2023-04-15T12:54:12;2.35;;;1.20;;
2906;SDS011;1463;51.070;16.998;2023-04-15T12:56:39;2.67;;;1.10;;
2906;SDS011;1463;51.070;16.998;2023-04-15T12:59:07;1.80;;;0.90;;
2906;SDS011;1463;51.070;16.998;2023-04-15T13:01:35;3.10;;;1.15;;
2906;SDS011;1463;51.070;16.998;2023-04-15T13:04:02;1.70;;;0.80;;
2906;SDS011;1463;51.070;16.998;2023-04-15T13:06:30;2.28;;;1.02;;
2906;SDS011;1463;51.070;16.998;2023-04-15T13:08:58;2.20;;;1.25;;
2906;SDS011;1463;51.070;16.998;2023-04-15T13:11:27;2.70;;;1.20;;
2906;SDS011;1463;51.070;16.998;2023-04-15T13:13:59;1.60;;;0.85;;
2906;SDS011;1463;51.070;16.998;2023-04-15T13:16:28;1.90;;;0.90;;
2906;SDS011;1463;51.070;16.998;2023-04-15T13:18:56;2.60;;;1.20;;
2906;SDS011;1463;51.070;16.998;2023-04-15T13:21:23;1.90;;;1.10;;
2906;SDS011;1463;51.070;16.998;2023-04-15T13:23:51;1.83;;;0.95;;
2906;SDS011;1463;51.070;16.998;2023-04-15T13:26:19;1.80;;;1.02;;
2906;SDS011;1463;51.070;16.998;2023-04-15T13:28:48;2.15;;;1.20;;
2906;SDS011;1463;51.070;16.998;2023-04-15T13:31:15;3.30;;;1.90;;
2906;SDS011;1463;51.070;16.998;2023-04-15T13:33:43;7.20;;;3.67;;
2906;SDS011;1463;51.070;16.998;2023-04-15T13:36:10;2.42;;;1.10;;
2906;SDS011;1463;51.070;16.998;2023-04-15T13:38:37;2.88;;;1.00;;
2906;SDS011;1463;51.070;16.998;2023-04-15T13:41:05;1.80;;;0.85;;
2906;SDS011;1463;51.070;16.998;2023-04-15T13:43:32;2.20;;;1.02;;
2906;SDS011;1463;51.070;16.998;2023-04-15T13:46:01;1.80;;;0.93;;
2906;SDS011;1463;51.070;16.998;2023-04-15T13:48:28;2.15;;;1.25;;
2906;SDS011;1463;51.070;16.998;2023-04-15T13:50:56;2.10;;;0.90;;
2906;SDS011;1463;51.070;16.998;2023-04-15T13:53:24;2.35;;;1.23;;
2906;SDS011;1463;51.070;16.998;2023-04-15T13:55:51;3.00;;;1.17;;
2906;SDS011;1463;51.070;16.998;2023-04-15T13:58:19;2.08;;;1.08;;
2906;SDS011;1463;51.070;16.998;2023-04-15T14:00:46;1.80;;;1.00;;
2906;SDS011;1463;51.070;16.998;2023-04-15T14:03:15;2.40;;;1.02;;
2906;SDS011;1463;51.070;16.998;2023-04-15T14:05:42;1.98;;;1.25;;
2906;SDS011;1463;51.070;16.998;2023-04-15T14:08:11;2.33;;;1.10;;
2906;SDS011;1463;51.070;16.998;2023-04-15T14:10:39;1.70;;;1.00;;
2906;SDS011;1463;51.070;16.998;2023-04-15T14:13:08;2.20;;;1.08;;
2906;SDS011;1463;51.070;16.998;2023-04-15T14:15:35;1.70;;;0.90;;
2906;SDS011;1463;51.070;16.998;2023-04-15T14:18:03;2.03;;;0.90;;
2906;SDS011;1463;51.070;16.998;2023-04-15T14:20:32;2.33;;;1.30;;
2906;SDS011;1463;51.070;16.998;2023-04-15T14:23:00;1.85;;;0.95;;
2906;SDS011;1463;51.070;16.998;2023-04-15T14:25:27;2.00;;;0.98;;
2906;SDS011;1463;51.070;16.998;2023-04-15T14:27:55;2.00;;;1.02;;
2906;SDS011;1463;51.070;16.998;2023-04-15T14:30:22;3.30;;;1.08;;
2906;SDS011;1463;51.070;16.998;2023-04-15T14:32:50;2.10;;;1.08;;
2906;SDS011;1463;51.070;16.998;2023-04-15T14:35:17;1.92;;;0.95;;
2906;SDS011;1463;51.070;16.998;2023-04-15T14:37:46;7.57;;;1.30;;
2906;SDS011;1463;51.070;16.998;2023-04-15T14:40:13;1.80;;;1.05;;
2906;SDS011;1463;51.070;16.998;2023-04-15T14:42:41;2.75;;;0.90;;
2906;SDS011;1463;51.070;16.998;2023-04-15T14:45:09;2.10;;;0.90;;
2906;SDS011;1463;51.070;16.998;2023-04-15T14:47:37;2.42;;;1.40;;
2906;SDS011;1463;51.070;16.998;2023-04-15T14:50:04;2.22;;;0.98;;
2906;SDS011;1463;51.070;16.998;2023-04-15T14:52:33;4.28;;;1.33;;
2906;SDS011;1463;51.070;16.998;2023-04-15T14:55:05;2.15;;;1.10;;
2906;SDS011;1463;51.070;16.998;2023-04-15T14:57:34;2.80;;;1.30;;
2906;SDS011;1463;51.070;16.998;2023-04-15T15:00:02;2.20;;;0.93;;
2906;SDS011;1463;51.070;16.998;2023-04-15T15:02:31;2.55;;;1.08;;
2906;SDS011;1463;51.070;16.998;2023-04-15T15:05:01;1.80;;;0.90;;
2906;SDS011;1463;51.070;16.998;2023-04-15T15:07:28;1.65;;;0.75;;
2906;SDS011;1463;51.070;16.998;2023-04-15T15:09:56;2.35;;;1.05;;
2906;SDS011;1463;51.070;16.998;2023-04-15T15:12:25;2.95;;;1.38;;
2906;SDS011;1463;51.070;16.998;2023-04-15T15:14:53;2.20;;;0.70;;